sensor_id;sensor_type;location;lat;lon;timestamp;pressure;altitude;pressure_sealevel;temperature;humidity
7058;BME280;3570;43.080;25.628;2022-11-15T00:00:49;-19695.75;;;8.31;100.00
7058;BME280;3570;43.080;25.628;2022-11-15T00:03:33;-19697.81;;;8.38;100.00
7058;BME280;3570;43.080;25.628;2022-11-15T00:06:17;-19697.50;;;8.37;100.00
7058;BME280;3570;43.080;25.628;2022-11-15T00:09:02;-19696.34;;;8.33;100.00
7058;BME280;3570;43.080;25.628;2022-11-15T00:11:47;-19685.94;;;7.98;100.00
7058;BME280;3570;43.080;25.628;2022-11-15T00:14:31;-19691.06;;;8.15;100.00
7058;BME280;3570;43.080;25.628;2022-11-15T00:17:15;-19686.25;;;7.99;100.00
7058;BME280;3570;43.080;25.628;2022-11-15T00:19:59;-19690.34;;;8.13;100.00
7058;BME280;3570;43.080;25.628;2022-11-15T00:22:43;-19689.91;;;8.11;100.00
7058;BME280;3570;43.080;25.628;2022-11-15T00:25:26;-19693.13;;;8.22;100.00
7058;BME280;3570;43.080;25.628;2022-11-15T00:28:10;-19689.31;;;8.09;100.00
7058;BME280;3570;43.080;25.628;2022-11-15T00:31:00;-19688.44;;;8.06;100.00
7058;BME280;3570;43.080;25.628;2022-11-15T00:33:45;-19688.28;;;8.06;100.00
7058;BME280;3570;43.080;25.628;2022-11-15T00:36:32;-19690.06;;;8.12;100.00
7058;BME280;3570;43.080;25.628;2022-11-15T00:39:17;-19689.47;;;8.10;100.00
7058;BME280;3570;43.080;25.628;2022-11-15T00:42:01;-19691.38;;;8.16;100.00
7058;BME280;3570;43.080;25.628;2022-11-15T00:44:44;-19690.34;;;8.13;100.00
7058;BME280;3570;43.080;25.628;2022-11-15T00:47:28;-19691.06;;;8.15;100.00
7058;BME280;3570;43.080;25.628;2022-11-15T00:50:13;-19691.06;;;8.15;100.00
7058;BME280;3570;43.080;25.628;2022-11-15T00:52:57;-19693.84;;;8.25;100.00
7058;BME280;3570;43.080;25.628;2022-11-15T00:55:41;-19698.69;;;8.41;100.00
7058;BME280;3570;43.080;25.628;2022-11-15T00:58:25;-19691.81;;;8.18;100.00
7058;BME280;3570;43.080;25.628;2022-11-15T01:01:12;-19691.94;;;8.18;100.00
7058;BME280;3570;43.080;25.628;2022-11-15T01:03:57;-19693.56;;;8.24;100.00
7058;BME280;3570;43.080;25.628;2022-11-15T01:06:41;-19692.53;;;8.20;100.00
7058;BME280;3570;43.080;25.628;2022-11-15T01:09:25;-19684.63;;;7.93;100.00
7058;BME280;3570;43.080;25.628;2022-11-15T01:12:08;-19686.09;;;7.98;100.00
7058;BME280;3570;43.080;25.628;2022-11-15T01:14:52;-19689.59;;;8.10;100.00
7058;BME280;3570;43.080;25.628;2022-11-15T01:17:36;-19685.22;;;7.95;100.00
7058;BME280;3570;43.080;25.628;2022-11-15T01:20:20;-19684.19;;;7.92;100.00
7058;BME280;3570;43.080;25.628;2022-11-15T01:23:04;-19694.28;;;8.26;100.00
7058;BME280;3570;43.080;25.628;2022-11-15T01:25:48;-19696.63;;;8.34;100.00
7058;BME280;3570;43.080;25.628;2022-11-15T01:28:34;-19703.38;;;8.57;100.00
7058;BME280;3570;43.080;25.628;2022-11-15T01:31:20;-19701.75;;;8.52;100.00
7058;BME280;3570;43.080;25.628;2022-11-15T01:34:04;-19697.22;;;8.36;100.00
7058;BME280;3570;43.080;25.628;2022-11-15T01:36:48;-19699.84;;;8.45;100.00
7058;BME280;3570;43.080;25.628;2022-11-15T01:39:32;-19701.91;;;8.52;100.00
7058;BME280;3570;43.080;25.628;2022-11-15T01:42:17;-19701.91;;;8.52;100.00
7058;BME280;3570;43.080;25.628;2022-11-15T01:45:01;-19702.78;;;8.55;100.00
7058;BME280;3570;43.080;25.628;2022-11-15T01:47:49;-19698.09;;;8.39;100.00
7058;BME280;3570;43.080;25.628;2022-11-15T01:50:34;-19702.19;;;8.53;100.00
7058;BME280;3570;43.080;25.628;2022-11-15T01:53:21;-19705.41;;;8.65;100.00
7058;BME280;3570;43.080;25.628;2022-11-15T01:56:11;-19702.34;;;8.54;100.00
7058;BME280;3570;43.080;25.628;2022-11-15T01:58:58;-19699.84;;;8.45;100.00
7058;BME280;3570;43.080;25.628;2022-11-15T02:01:44;-19709.66;;;8.79;100.00
7058;BME280;3570;43.080;25.628;2022-11-15T02:04:31;-19715.06;;;8.98;100.00
7058;BME280;3570;43.080;25.628;2022-11-15T02:07:18;-19716.53;;;9.03;100.00
7058;BME280;3570;43.080;25.628;2022-11-15T02:10:17;-19712.00;;;8.87;100.00
7058;BME280;3570;43.080;25.628;2022-11-15T02:13:01;-19710.81;;;8.83;100.00
7058;BME280;3570;43.080;25.628;2022-11-15T02:22:51;-19702.47;;;8.54;100.00
7058;BME280;3570;43.080;25.628;2022-11-15T02:25:51;-19708.34;;;8.75;100.00
7058;BME280;3570;43.080;25.628;2022-11-15T02:32:18;-19712.72;;;8.90;100.00
7058;BME280;3570;43.080;25.628;2022-11-15T02:41:24;-19708.91;;;8.77;100.00
7058;BME280;3570;43.080;25.628;2022-11-15T02:44:14;-19715.78;;;9.00;100.00
7058;BME280;3570;43.080;25.628;2022-11-15T02:47:03;-19715.66;;;9.00;100.00
7058;BME280;3570;43.080;25.628;2022-11-15T02:50:00;-19713.31;;;8.92;100.00
7058;BME280;3570;43.080;25.628;2022-11-15T02:52:48;-19712.56;;;8.89;100.00
7058;BME280;3570;43.080;25.628;2022-11-15T02:55:34;-19714.31;;;8.95;100.00
7058;BME280;3570;43.080;25.628;2022-11-15T03:04:52;-19713.44;;;8.92;100.00
7058;BME280;3570;43.080;25.628;2022-11-15T03:07:57;-19710.09;;;8.81;100.00
7058;BME280;3570;43.080;25.628;2022-11-15T03:11:03;-19706.88;;;8.70;100.00
7058;BME280;3570;43.080;25.628;2022-11-15T03:20:03;-19709.66;;;8.79;100.00
7058;BME280;3570;43.080;25.628;2022-11-15T03:22:49;-19710.69;;;8.83;100.00
7058;BME280;3570;43.080;25.628;2022-11-15T03:25:38;-19710.25;;;8.81;100.00
7058;BME280;3570;43.080;25.628;2022-11-15T03:28:32;-19703.81;;;8.59;100.00
7058;BME280;3570;43.080;25.628;2022-11-15T03:31:18;-19703.66;;;8.59;100.00
7058;BME280;3570;43.080;25.628;2022-11-15T03:34:41;-19713.59;;;8.93;100.00
7058;BME280;3570;43.080;25.628;2022-11-15T03:40:22;-19711.56;;;8.86;100.00
7058;BME280;3570;43.080;25.628;2022-11-15T03:43:42;-19710.25;;;8.81;100.00
7058;BME280;3570;43.080;25.628;2022-11-15T03:46:52;-19713.59;;;8.93;100.00
7058;BME280;3570;43.080;25.628;2022-11-15T03:49:44;-19713.31;;;8.92;100.00
7058;BME280;3570;43.080;25.628;2022-11-15T03:52:32;-19712.00;;;8.87;100.00
7058;BME280;3570;43.080;25.628;2022-11-15T03:55:19;-19713.31;;;8.92;100.00
7058;BME280;3570;43.080;25.628;2022-11-15T03:58:03;-19712.44;;;8.89;100.00
7058;BME280;3570;43.080;25.628;2022-11-15T04:00:47;-19707.16;;;8.71;100.00
7058;BME280;3570;43.080;25.628;2022-11-15T04:03:31;-19707.75;;;8.73;100.00
7058;BME280;3570;43.080;25.628;2022-11-15T04:06:15;-19710.09;;;8.81;100.00
7058;BME280;3570;43.080;25.628;2022-11-15T04:08:59;-19710.53;;;8.82;100.00
7058;BME280;3570;43.080;25.628;2022-11-15T04:11:43;-19715.22;;;8.98;100.00
7058;BME280;3570;43.080;25.628;2022-11-15T04:14:27;-19712.88;;;8.90;100.00
7058;BME280;3570;43.080;25.628;2022-11-15T04:17:11;-19710.38;;;8.82;100.00
7058;BME280;3570;43.080;25.628;2022-11-15T04:19:55;-19707.47;;;8.72;100.00
7058;BME280;3570;43.080;25.628;2022-11-15T04:22:59;-19706.44;;;8.68;100.00
7058;BME280;3570;43.080;25.628;2022-11-15T04:26:08;-19709.94;;;8.80;100.00
7058;BME280;3570;43.080;25.628;2022-11-15T04:28:53;-19701.63;;;8.51;100.00
7058;BME280;3570;43.080;25.628;2022-11-15T04:31:56;-19698.25;;;8.40;100.00
7058;BME280;3570;43.080;25.628;2022-11-15T04:34:40;-19699.72;;;8.45;100.00
7058;BME280;3570;43.080;25.628;2022-11-15T04:37:24;-19698.69;;;8.41;100.00
7058;BME280;3570;43.080;25.628;2022-11-15T04:40:08;-19689.03;;;8.08;100.00
7058;BME280;3570;43.080;25.628;2022-11-15T04:42:53;-19694.59;;;8.27;100.00
7058;BME280;3570;43.080;25.628;2022-11-15T04:45:37;-19694.44;;;8.27;100.00
7058;BME280;3570;43.080;25.628;2022-11-15T04:48:21;-19695.47;;;8.30;100.00
7058;BME280;3570;43.080;25.628;2022-11-15T04:51:05;-19696.06;;;8.32;100.00
7058;BME280;3570;43.080;25.628;2022-11-15T04:53:49;-19696.78;;;8.35;100.00
7058;BME280;3570;43.080;25.628;2022-11-15T04:56:33;-19695.03;;;8.29;100.00
7058;BME280;3570;43.080;25.628;2022-11-15T04:59:17;-19695.03;;;8.29;100.00
7058;BME280;3570;43.080;25.628;2022-11-15T05:02:01;-19694.00;;;8.25;100.00
7058;BME280;3570;43.080;25.628;2022-11-15T05:04:44;-19686.69;;;8.00;100.00
7058;BME280;3570;43.080;25.628;2022-11-15T05:07:28;-19684.94;;;7.94;100.00
7058;BME280;3570;43.080;25.628;2022-11-15T05:10:12;-19693.41;;;8.23;100.00
7058;BME280;3570;43.080;25.628;2022-11-15T05:12:56;-19692.69;;;8.21;100.00
7058;BME280;3570;43.080;25.628;2022-11-15T05:15:40;-19690.19;;;8.12;100.00
7058;BME280;3570;43.080;25.628;2022-11-15T05:18:24;-19690.78;;;8.14;100.00
7058;BME280;3570;43.080;25.628;2022-11-15T05:21:13;-19691.22;;;8.16;100.00
7058;BME280;3570;43.080;25.628;2022-11-15T05:23:58;-19684.63;;;7.93;100.00
7058;BME280;3570;43.080;25.628;2022-11-15T05:26:42;-19690.78;;;8.14;100.00
7058;BME280;3570;43.080;25.628;2022-11-15T05:29:26;-19690.78;;;8.14;100.00
7058;BME280;3570;43.080;25.628;2022-11-15T05:32:11;-19691.38;;;8.16;100.00
7058;BME280;3570;43.080;25.628;2022-11-15T05:34:56;-19692.09;;;8.19;100.00
7058;BME280;3570;43.080;25.628;2022-11-15T05:37:40;-19687.56;;;8.03;100.00
7058;BME280;3570;43.080;25.628;2022-11-15T05:40:24;-19694.72;;;8.28;100.00
7058;BME280;3570;43.080;25.628;2022-11-15T05:43:10;-19692.25;;;8.19;100.00
7058;BME280;3570;43.080;25.628;2022-11-15T05:45:56;-19692.53;;;8.20;100.00
7058;BME280;3570;43.080;25.628;2022-11-15T05:48:43;-19693.84;;;8.25;100.00
7058;BME280;3570;43.080;25.628;2022-11-15T05:51:29;-19696.34;;;8.33;100.00
7058;BME280;3570;43.080;25.628;2022-11-15T05:54:14;-19698.53;;;8.41;100.00
7058;BME280;3570;43.080;25.628;2022-11-15T05:56:58;-19690.19;;;8.12;100.00
7058;BME280;3570;43.080;25.628;2022-11-15T05:59:44;-19686.69;;;8.00;100.00
7058;BME280;3570;43.080;25.628;2022-11-15T06:02:28;-19693.13;;;8.22;100.00
7058;BME280;3570;43.080;25.628;2022-11-15T06:05:12;-19688.59;;;8.07;100.00
7058;BME280;3570;43.080;25.628;2022-11-15T06:07:59;-19692.81;;;8.21;100.00
7058;BME280;3570;43.080;25.628;2022-11-15T06:10:44;-19693.41;;;8.23;100.00
7058;BME280;3570;43.080;25.628;2022-11-15T06:13:28;-19692.38;;;8.20;100.00
7058;BME280;3570;43.080;25.628;2022-11-15T06:16:12;-19689.91;;;8.11;100.00
7058;BME280;3570;43.080;25.628;2022-11-15T06:18:56;-19692.25;;;8.19;100.00
7058;BME280;3570;43.080;25.628;2022-11-15T06:21:40;-19692.69;;;8.21;100.00
7058;BME280;3570;43.080;25.628;2022-11-15T06:24:24;-19693.13;;;8.22;100.00
7058;BME280;3570;43.080;25.628;2022-11-15T06:27:08;-19693.72;;;8.24;100.00
7058;BME280;3570;43.080;25.628;2022-11-15T06:29:52;-19692.38;;;8.20;100.00
7058;BME280;3570;43.080;25.628;2022-11-15T06:32:36;-19690.19;;;8.12;100.00
7058;BME280;3570;43.080;25.628;2022-11-15T06:35:19;-19690.06;;;8.12;100.00
7058;BME280;3570;43.080;25.628;2022-11-15T06:38:06;-19694.72;;;8.28;100.00
7058;BME280;3570;43.080;25.628;2022-11-15T06:40:51;-19696.06;;;8.32;100.00
7058;BME280;3570;43.080;25.628;2022-11-15T06:43:36;-19696.78;;;8.35;100.00
7058;BME280;3570;43.080;25.628;2022-11-15T06:46:20;-19700.88;;;8.49;100.00
7058;BME280;3570;43.080;25.628;2022-11-15T06:49:04;-19707.59;;;8.72;100.00
7058;BME280;3570;43.080;25.628;2022-11-15T06:51:48;-19703.94;;;8.60;100.00
7058;BME280;3570;43.080;25.628;2022-11-15T06:54:32;-19694.88;;;8.28;100.00
7058;BME280;3570;43.080;25.628;2022-11-15T06:57:16;-19698.97;;;8.42;100.00
7058;BME280;3570;43.080;25.628;2022-11-15T07:00:00;-19706.44;;;8.68;100.00
7058;BME280;3570;43.080;25.628;2022-11-15T07:02:45;-19709.81;;;8.80;100.00
7058;BME280;3570;43.080;25.628;2022-11-15T07:05:29;-19708.34;;;8.75;100.00
7058;BME280;3570;43.080;25.628;2022-11-15T07:08:13;-19702.78;;;8.55;100.00
7058;BME280;3570;43.080;25.628;2022-11-15T07:10:58;-19697.94;;;8.39;100.00
7058;BME280;3570;43.080;25.628;2022-11-15T07:13:43;-19706.72;;;8.69;100.00
7058;BME280;3570;43.080;25.628;2022-11-15T07:16:27;-19703.94;;;8.60;100.00
7058;BME280;3570;43.080;25.628;2022-11-15T07:19:11;-19703.38;;;8.57;100.00
7058;BME280;3570;43.080;25.628;2022-11-15T07:21:55;-19712.56;;;8.89;100.00
7058;BME280;3570;43.080;25.628;2022-11-15T07:24:39;-19713.00;;;8.91;100.00
7058;BME280;3570;43.080;25.628;2022-11-15T07:27:23;-19712.13;;;8.88;100.00
7058;BME280;3570;43.080;25.628;2022-11-15T07:30:07;-19703.50;;;8.58;100.00
7058;BME280;3570;43.080;25.628;2022-11-15T07:32:59;-19710.97;;;8.84;100.00
7058;BME280;3570;43.080;25.628;2022-11-15T07:35:44;-19712.13;;;8.88;100.00
7058;BME280;3570;43.080;25.628;2022-11-15T07:38:30;-19706.88;;;8.70;100.00
7058;BME280;3570;43.080;25.628;2022-11-15T07:41:15;-19703.06;;;8.57;100.00
7058;BME280;3570;43.080;25.628;2022-11-15T07:43:59;-19699.13;;;8.43;100.00
7058;BME280;3570;43.080;25.628;2022-11-15T07:46:44;-19690.06;;;8.12;100.00
7058;BME280;3570;43.080;25.628;2022-11-15T07:49:28;-19703.38;;;8.57;100.00
7058;BME280;3570;43.080;25.628;2022-11-15T07:52:12;-19703.66;;;8.59;100.00
7058;BME280;3570;43.080;25.628;2022-11-15T07:54:56;-19701.47;;;8.51;100.00
7058;BME280;3570;43.080;25.628;2022-11-15T07:57:40;-19703.66;;;8.59;100.00
7058;BME280;3570;43.080;25.628;2022-11-15T08:00:25;-19702.47;;;8.54;100.00
7058;BME280;3570;43.080;25.628;2022-11-15T08:03:13;-19698.38;;;8.40;100.00
7058;BME280;3570;43.080;25.628;2022-11-15T08:05:57;-19697.50;;;8.37;100.00
7058;BME280;3570;43.080;25.628;2022-11-15T08:08:41;-19702.94;;;8.56;100.00
7058;BME280;3570;43.080;25.628;2022-11-15T08:11:25;-19701.91;;;8.52;100.00
7058;BME280;3570;43.080;25.628;2022-11-15T08:14:09;-19710.38;;;8.82;100.00
7058;BME280;3570;43.080;25.628;2022-11-15T08:16:54;-19713.88;;;8.94;100.00
7058;BME280;3570;43.080;25.628;2022-11-15T08:19:39;-19712.72;;;8.90;100.00
7058;BME280;3570;43.080;25.628;2022-11-15T08:22:22;-19718.56;;;9.10;100.00
7058;BME280;3570;43.080;25.628;2022-11-15T08:25:06;-19712.56;;;8.89;100.00
7058;BME280;3570;43.080;25.628;2022-11-15T08:27:52;-19720.31;;;9.16;100.00
7058;BME280;3570;43.080;25.628;2022-11-15T08:30:38;-19722.22;;;9.22;100.00
7058;BME280;3570;43.080;25.628;2022-11-15T08:33:25;-19713.75;;;8.93;100.00
7058;BME280;3570;43.080;25.628;2022-11-15T08:36:14;-19720.91;;;9.18;100.00
7058;BME280;3570;43.080;25.628;2022-11-15T08:38:59;-19726.91;;;9.38;100.00
7058;BME280;3570;43.080;25.628;2022-11-15T08:41:43;-19720.19;;;9.15;100.00
7058;BME280;3570;43.080;25.628;2022-11-15T08:44:28;-19726.47;;;9.37;100.00
7058;BME280;3570;43.080;25.628;2022-11-15T08:47:12;-19730.41;;;9.50;100.00
7058;BME280;3570;43.080;25.628;2022-11-15T08:49:57;-19729.38;;;9.47;100.00
7058;BME280;3570;43.080;25.628;2022-11-15T08:52:41;-19726.31;;;9.36;100.00
7058;BME280;3570;43.080;25.628;2022-11-15T08:55:25;-19729.97;;;9.49;100.00
7058;BME280;3570;43.080;25.628;2022-11-15T08:58:09;-19731.16;;;9.53;100.00
7058;BME280;3570;43.080;25.628;2022-11-15T09:00:52;-19725.31;;;9.33;100.00
7058;BME280;3570;43.080;25.628;2022-11-15T09:03:36;-19741.22;;;9.88;100.00
7058;BME280;3570;43.080;25.628;2022-11-15T09:06:23;-19748.69;;;10.13;100.00
7058;BME280;3570;43.080;25.628;2022-11-15T09:09:07;-19749.41;;;10.16;100.00
7058;BME280;3570;43.080;25.628;2022-11-15T09:11:51;-19744.00;;;9.97;100.00
7058;BME280;3570;43.080;25.628;2022-11-15T09:14:35;-19741.22;;;9.88;100.00
7058;BME280;3570;43.080;25.628;2022-11-15T09:17:19;-19742.53;;;9.92;100.00
7058;BME280;3570;43.080;25.628;2022-11-15T09:20:04;-19743.72;;;9.96;100.00
7058;BME280;3570;43.080;25.628;2022-11-15T09:22:48;-19738.16;;;9.77;100.00
7058;BME280;3570;43.080;25.628;2022-11-15T09:25:32;-19741.97;;;9.90;100.00
7058;BME280;3570;43.080;25.628;2022-11-15T09:28:17;-19747.06;;;10.08;100.00
7058;BME280;3570;43.080;25.628;2022-11-15T09:31:03;-19748.69;;;10.13;100.00
7058;BME280;3570;43.080;25.628;2022-11-15T09:33:48;-19751.91;;;10.24;100.00
7058;BME280;3570;43.080;25.628;2022-11-15T09:36:31;-19757.59;;;10.44;100.00
7058;BME280;3570;43.080;25.628;2022-11-15T09:39:15;-19748.25;;;10.12;100.00
7058;BME280;3570;43.080;25.628;2022-11-15T09:50:54;-19778.03;;;11.14;100.00
7058;BME280;3570;43.080;25.628;2022-11-15T09:53:56;-19784.03;;;11.35;100.00
7058;BME280;3570;43.080;25.628;2022-11-15T09:56:42;-19792.63;;;11.65;100.00
7058;BME280;3570;43.080;25.628;2022-11-15T10:06:06;-19781.97;;;11.28;100.00
7058;BME280;3570;43.080;25.628;2022-11-15T10:09:05;-19776.28;;;11.08;100.00
7058;BME280;3570;43.080;25.628;2022-11-15T10:11:51;-19780.38;;;11.22;100.00
7058;BME280;3570;43.080;25.628;2022-11-15T10:14:35;-19781.25;;;11.25;100.00
7058;BME280;3570;43.080;25.628;2022-11-15T10:17:48;-19781.09;;;11.25;100.00
7058;BME280;3570;43.080;25.628;2022-11-15T10:21:39;-19779.66;;;11.20;100.00
7058;BME280;3570;43.080;25.628;2022-11-15T10:24:13;-19778.78;;;11.17;100.00
7058;BME280;3570;43.080;25.628;2022-11-15T10:27:07;-19788.69;;;11.51;100.00
7058;BME280;3570;43.080;25.628;2022-11-15T10:29:53;-19794.25;;;11.70;100.00
7058;BME280;3570;43.080;25.628;2022-11-15T10:32:37;-19786.94;;;11.45;100.00
7058;BME280;3570;43.080;25.628;2022-11-15T10:35:28;-19797.31;;;11.81;100.00
7058;BME280;3570;43.080;25.628;2022-11-15T10:38:13;-19794.84;;;11.72;100.00
7058;BME280;3570;43.080;25.628;2022-11-15T10:41:07;-19781.69;;;11.27;100.00
7058;BME280;3570;43.080;25.628;2022-11-15T10:49:53;-19776.88;;;11.10;100.00
7058;BME280;3570;43.080;25.628;2022-11-15T10:52:45;-19773.94;;;11.00;100.00
7058;BME280;3570;43.080;25.628;2022-11-15T10:55:33;-19779.19;;;11.18;100.00
7058;BME280;3570;43.080;25.628;2022-11-15T10:58:32;-19771.31;;;10.91;100.00
7058;BME280;3570;43.080;25.628;2022-11-15T11:01:24;-19770.00;;;10.87;100.00
7058;BME280;3570;43.080;25.628;2022-11-15T11:04:09;-19770.88;;;10.90;100.00
7058;BME280;3570;43.080;25.628;2022-11-15T11:06:58;-19770.59;;;10.89;100.00
7058;BME280;3570;43.080;25.628;2022-11-15T11:09:43;-19766.34;;;10.74;100.00
7058;BME280;3570;43.080;25.628;2022-11-15T11:12:31;-19764.91;;;10.69;100.00
7058;BME280;3570;43.080;25.628;2022-11-15T11:15:16;-19760.97;;;10.56;100.00
7058;BME280;3570;43.080;25.628;2022-11-15T11:21:00;-19762.13;;;10.60;100.00
7058;BME280;3570;43.080;25.628;2022-11-15T11:23:54;-19762.56;;;10.61;100.00
7058;BME280;3570;43.080;25.628;2022-11-15T11:26:54;-19756.72;;;10.41;100.00
7058;BME280;3570;43.080;25.628;2022-11-15T11:35:45;-19774.97;;;11.04;100.00
7058;BME280;3570;43.080;25.628;2022-11-15T11:38:40;-19774.38;;;11.02;100.00
7058;BME280;3570;43.080;25.628;2022-11-15T11:44:37;-19775.56;;;11.06;100.00
7058;BME280;3570;43.080;25.628;2022-11-15T11:47:39;-19777.16;;;11.11;100.00
7058;BME280;3570;43.080;25.628;2022-11-15T11:50:26;-19775.84;;;11.07;100.00
7058;BME280;3570;43.080;25.628;2022-11-15T11:54:12;-19779.19;;;11.18;100.00
7058;BME280;3570;43.080;25.628;2022-11-15T11:56:39;-19779.50;;;11.19;100.00
7058;BME280;3570;43.080;25.628;2022-11-15T11:59:58;-19774.69;;;11.03;100.00
7058;BME280;3570;43.080;25.628;2022-11-15T12:08:46;-19767.22;;;10.77;100.00
7058;BME280;3570;43.080;25.628;2022-11-15T12:14:45;-19772.94;;;10.97;100.00
7058;BME280;3570;43.080;25.628;2022-11-15T12:17:31;-19768.97;;;10.83;100.00
7058;BME280;3570;43.080;25.628;2022-11-15T12:20:22;-19771.03;;;10.90;100.00
7058;BME280;3570;43.080;25.628;2022-11-15T12:23:20;-19755.41;;;10.36;100.00
7058;BME280;3570;43.080;25.628;2022-11-15T12:26:11;-19744.72;;;10.00;100.00
7058;BME280;3570;43.080;25.628;2022-11-15T12:29:33;-19758.63;;;10.48;100.00
7058;BME280;3570;43.080;25.628;2022-11-15T12:38:12;-19756.56;;;10.40;100.00
7058;BME280;3570;43.080;25.628;2022-11-15T12:41:17;-19753.38;;;10.29;100.00
7058;BME280;3570;43.080;25.628;2022-11-15T12:44:03;-19753.38;;;10.29;100.00
7058;BME280;3570;43.080;25.628;2022-11-15T12:52:19;-19750.44;;;10.19;100.00
7058;BME280;3570;43.080;25.628;2022-11-15T12:55:31;-19756.88;;;10.41;100.00
7058;BME280;3570;43.080;25.628;2022-11-15T12:58:42;-19755.84;;;10.38;100.00
7058;BME280;3570;43.080;25.628;2022-11-15T13:13:43;-19750.00;;;10.18;100.00
7058;BME280;3570;43.080;25.628;2022-11-15T13:16:28;-19748.25;;;10.12;100.00
7058;BME280;3570;43.080;25.628;2022-11-15T13:19:14;-19749.84;;;10.17;100.00
7058;BME280;3570;43.080;25.628;2022-11-15T13:21:58;-19748.25;;;10.12;100.00
7058;BME280;3570;43.080;25.628;2022-11-15T13:25:02;-19747.50;;;10.09;100.00
7058;BME280;3570;43.080;25.628;2022-11-15T13:27:50;-19749.13;;;10.15;100.00
7058;BME280;3570;43.080;25.628;2022-11-15T13:30:36;-19747.94;;;10.11;100.00
7058;BME280;3570;43.080;25.628;2022-11-15T13:33:33;-19738.59;;;9.79;100.00
7058;BME280;3570;43.080;25.628;2022-11-15T13:36:24;-19744.00;;;9.97;100.00
7058;BME280;3570;43.080;25.628;2022-11-15T13:39:32;-19746.06;;;10.04;100.00
7058;BME280;3570;43.080;25.628;2022-11-15T13:42:20;-19743.84;;;9.97;100.00
7058;BME280;3570;43.080;25.628;2022-11-15T13:45:05;-19742.25;;;9.91;100.00
7058;BME280;3570;43.080;25.628;2022-11-15T13:47:57;-19744.28;;;9.98;100.00
7058;BME280;3570;43.080;25.628;2022-11-15T13:50:41;-19741.53;;;9.89;100.00
7058;BME280;3570;43.080;25.628;2022-11-15T13:53:25;-19739.63;;;9.82;100.00
7058;BME280;3570;43.080;25.628;2022-11-15T13:56:10;-19741.38;;;9.88;100.00
7058;BME280;3570;43.080;25.628;2022-11-15T13:58:54;-19741.09;;;9.87;100.00
7058;BME280;3570;43.080;25.628;2022-11-15T14:01:41;-19741.38;;;9.88;100.00
7058;BME280;3570;43.080;25.628;2022-11-15T14:04:28;-19737.28;;;9.74;100.00
7058;BME280;3570;43.080;25.628;2022-11-15T14:07:20;-19737.00;;;9.73;100.00
7058;BME280;3570;43.080;25.628;2022-11-15T14:13:28;-19732.31;;;9.57;100.00
7058;BME280;3570;43.080;25.628;2022-11-15T14:16:33;-19734.22;;;9.64;100.00
7058;BME280;3570;43.080;25.628;2022-11-15T14:22:10;-19739.03;;;9.80;100.00
7058;BME280;3570;43.080;25.628;2022-11-15T14:31:10;-19738.16;;;9.77;100.00
7058;BME280;3570;43.080;25.628;2022-11-15T14:33:55;-19735.53;;;9.68;100.00
7058;BME280;3570;43.080;25.628;2022-11-15T14:36:39;-19732.91;;;9.59;100.00
7058;BME280;3570;43.080;25.628;2022-11-15T14:39:23;-19717.41;;;9.06;100.00
7058;BME280;3570;43.080;25.628;2022-11-15T14:42:09;-19730.56;;;9.51;100.00
7058;BME280;3570;43.080;25.628;2022-11-15T14:44:53;-19727.94;;;9.42;100.00
7058;BME280;3570;43.080;25.628;2022-11-15T14:47:37;-19725.75;;;9.34;100.00
7058;BME280;3570;43.080;25.628;2022-11-15T14:50:22;-19729.53;;;9.47;100.00
7058;BME280;3570;43.080;25.628;2022-11-15T14:53:06;-19726.47;;;9.37;100.00
7058;BME280;3570;43.080;25.628;2022-11-15T14:55:50;-19720.47;;;9.16;100.00
7058;BME280;3570;43.080;25.628;2022-11-15T14:58:34;-19724.13;;;9.29;100.00
7058;BME280;3570;43.080;25.628;2022-11-15T15:01:22;-19726.19;;;9.36;100.00
7058;BME280;3570;43.080;25.628;2022-11-15T15:04:09;-19725.59;;;9.34;100.00
7058;BME280;3570;43.080;25.628;2022-11-15T15:06:54;-19722.22;;;9.22;100.00
7058;BME280;3570;43.080;25.628;2022-11-15T15:09:38;-19725.59;;;9.34;100.00
7058;BME280;3570;43.080;25.628;2022-11-15T15:12:23;-19727.34;;;9.40;100.00
7058;BME280;3570;43.080;25.628;2022-11-15T15:15:16;-19724.84;;;9.31;100.00
7058;BME280;3570;43.080;25.628;2022-11-15T15:18:03;-19721.63;;;9.20;100.00
7058;BME280;3570;43.080;25.628;2022-11-15T15:20:55;-19723.09;;;9.25;100.00
7058;BME280;3570;43.080;25.628;2022-11-15T15:23:40;-19721.06;;;9.18;100.00
7058;BME280;3570;43.080;25.628;2022-11-15T15:26:24;-19721.94;;;9.21;100.00
7058;BME280;3570;43.080;25.628;2022-11-15T15:29:09;-19718.72;;;9.10;100.00
7058;BME280;3570;43.080;25.628;2022-11-15T15:31:53;-19719.75;;;9.14;100.00
7058;BME280;3570;43.080;25.628;2022-11-15T15:34:37;-19726.31;;;9.36;100.00
7058;BME280;3570;43.080;25.628;2022-11-15T15:37:25;-19727.03;;;9.39;100.00
7058;BME280;3570;43.080;25.628;2022-11-15T15:40:18;-19725.75;;;9.34;100.00
7058;BME280;3570;43.080;25.628;2022-11-15T15:43:03;-19725.88;;;9.35;100.00
7058;BME280;3570;43.080;25.628;2022-11-15T15:45:47;-19725.75;;;9.34;100.00
7058;BME280;3570;43.080;25.628;2022-11-15T15:48:32;-19724.72;;;9.31;100.00
7058;BME280;3570;43.080;25.628;2022-11-15T15:51:17;-19721.34;;;9.19;100.00
7058;BME280;3570;43.080;25.628;2022-11-15T15:54:01;-19723.25;;;9.26;100.00
7058;BME280;3570;43.080;25.628;2022-11-15T15:56:45;-19723.84;;;9.28;100.00
7058;BME280;3570;43.080;25.628;2022-11-15T15:59:29;-19715.22;;;8.98;100.00
7058;BME280;3570;43.080;25.628;2022-11-15T16:02:13;-19714.91;;;8.97;100.00
7058;BME280;3570;43.080;25.628;2022-11-15T16:04:57;-19714.91;;;8.97;100.00
7058;BME280;3570;43.080;25.628;2022-11-15T16:07:41;-19715.06;;;8.98;100.00
7058;BME280;3570;43.080;25.628;2022-11-15T16:10:31;-19712.56;;;8.89;100.00
7058;BME280;3570;43.080;25.628;2022-11-15T16:13:17;-19718.28;;;9.09;100.00
7058;BME280;3570;43.080;25.628;2022-11-15T16:16:01;-19718.88;;;9.11;100.00
7058;BME280;3570;43.080;25.628;2022-11-15T16:18:45;-19721.34;;;9.19;100.00
7058;BME280;3570;43.080;25.628;2022-11-15T16:21:29;-19719.75;;;9.14;100.00
7058;BME280;3570;43.080;25.628;2022-11-15T16:24:13;-19723.41;;;9.26;100.00
7058;BME280;3570;43.080;25.628;2022-11-15T16:26:57;-19721.50;;;9.20;100.00
7058;BME280;3570;43.080;25.628;2022-11-15T16:29:41;-19721.06;;;9.18;100.00
7058;BME280;3570;43.080;25.628;2022-11-15T16:32:25;-19720.47;;;9.16;100.00
7058;BME280;3570;43.080;25.628;2022-11-15T16:35:12;-19721.78;;;9.21;100.00